Time;durP1;ratioP1;P1;durP2;ratioP2;P2;SDS_P1;SDS_P2;PMS_P1;PMS_P2;Temp;Humidity;BMP_temperature;BMP_pressure;BME280_temperature;BME280_humidity;BME280_pressure;Samples;Min_cycle;Max_cycle;Signal;HPM_P1;HPM_P2
2022/01/24 00:00:54;;;;;;;27.30;15.55;;;;;;;-142.75;100.00;79561.53;5012119;28;20500;-67
2022/01/24 00:03:19;;;;;;;28.02;15.55;;;;;;;-142.75;100.00;79551.69;5012124;28;20095;-68
2022/01/24 00:05:45;;;;;;;22.80;15.00;;;;;;;-142.75;100.00;79537.88;4994499;28;20017;-68
2022/01/24 00:08:10;;;;;;;25.75;15.57;;;;;;;-142.75;100.00;79524.09;4994429;28;20352;-68
2022/01/24 00:10:38;;;;;;;22.73;14.63;;;;;;;-142.75;100.00;79535.91;5012506;28;20030;-68
2022/01/24 00:13:45;;;;;;;23.17;15.07;;;;;;;-142.75;100.00;79531.97;5011936;28;20107;-68
2022/01/24 00:26:39;;;;;;;24.23;15.20;;;;;;;-142.75;100.00;79543.78;5011873;28;20092;-68
2022/01/24 00:29:07;;;;;;;28.53;17.03;;;;;;;-142.75;100.00;79563.50;5031399;28;20061;-68
2022/01/24 00:31:32;;;;;;;31.10;16.77;;;;;;;-142.75;100.00;79549.69;5031320;28;20272;-68
2022/01/24 00:33:57;;;;;;;24.87;16.00;;;;;;;-142.75;100.00;79549.69;5013328;28;20116;-67
2022/01/24 00:36:23;;;;;;;25.30;15.68;;;;;;;-142.75;100.00;79549.69;5031335;28;20614;-68
2022/01/24 00:38:48;;;;;;;22.92;14.65;;;;;;;-142.75;100.00;79539.84;5031220;28;20445;-68
2022/01/24 00:41:17;;;;;;;25.70;15.27;;;;;;;-142.75;100.00;79533.94;5031156;28;20025;-68
2022/01/24 00:46:36;;;;;;;25.03;15.67;;;;;;;-142.75;100.00;79559.56;5031210;28;20025;-68
2022/01/24 00:54:47;;;;;;;23.77;14.77;;;;;;;-142.75;100.00;79547.72;5011102;28;20048;-68
2022/01/24 00:57:14;;;;;;;26.33;17.53;;;;;;;-142.75;100.00;79543.78;5011139;28;20049;-68
2022/01/24 00:59:40;;;;;;;36.33;19.15;;;;;;;-142.75;100.00;79535.91;5010832;28;20038;-68
2022/01/24 01:02:06;;;;;;;44.05;19.27;;;;;;;-142.75;100.00;79535.91;5010972;28;20022;-68
2022/01/24 01:04:56;;;;;;;43.53;21.45;;;;;;;-142.75;100.00;79516.22;5010893;28;20034;-68
2022/01/24 01:07:54;;;;;;;22.63;14.10;;;;;;;-142.75;100.00;79520.16;5010886;28;20033;-68
2022/01/24 01:18:22;;;;;;;30.70;16.90;;;;;;;-142.75;100.00;79510.31;5025534;28;20480;-68
2022/01/24 01:21:10;;;;;;;31.77;16.98;;;;;;;-142.75;100.00;79516.22;5030362;28;20100;-67
2022/01/24 01:23:39;;;;;;;30.93;16.27;;;;;;;-142.75;100.00;79520.16;5030517;28;20450;-68
2022/01/24 01:26:10;;;;;;;29.93;17.00;;;;;;;-142.75;100.00;79516.22;5030632;28;20112;-68
2022/01/24 01:28:38;;;;;;;33.73;16.00;;;;;;;-142.75;100.00;79514.25;5012658;28;20415;-68
2022/01/24 01:31:09;;;;;;;32.43;17.63;;;;;;;-142.75;100.00;79528.03;5029953;28;20017;-68
2022/01/24 01:34:04;;;;;;;36.03;17.27;;;;;;;-142.75;100.00;79541.81;5030137;28;20057;-68
2022/01/24 01:36:40;;;;;;;29.90;17.77;;;;;;;-142.75;100.00;79535.91;5010094;28;20041;-68
2022/01/24 01:55:38;;;;;;;34.58;19.20;;;;;;;-142.75;100.00;79547.72;5029870;28;20120;-68
2022/01/24 01:58:07;;;;;;;32.87;18.30;;;;;;;-142.75;100.00;79547.72;5029289;28;20022;-68
2022/01/24 02:00:35;;;;;;;39.13;19.30;;;;;;;-142.75;100.00;79549.69;5027110;28;20048;-68
2022/01/24 02:03:00;;;;;;;38.40;19.37;;;;;;;-142.75;100.00;79547.72;5010024;28;20065;-68
2022/01/24 02:05:26;;;;;;;36.70;19.98;;;;;;;-142.75;100.00;79557.59;5010082;28;20558;-68
2022/01/24 02:07:53;;;;;;;36.30;20.05;;;;;;;-142.75;100.00;79553.63;4992141;28;20168;-67
2022/01/24 02:10:20;;;;;;;38.00;20.13;;;;;;;-142.75;100.00;79549.69;5010273;28;20057;-68
2022/01/24 02:12:47;;;;;;;38.97;20.60;;;;;;;-142.75;100.00;79547.72;5009750;28;20595;-68
2022/01/24 02:15:17;;;;;;;40.37;20.70;;;;;;;-142.75;100.00;79543.78;5009667;28;20033;-68
2022/01/24 02:20:38;;;;;;;40.27;21.80;;;;;;;-142.75;100.00;79543.78;5009674;28;20128;-68
2022/01/24 02:25:44;;;;;;;35.53;18.50;;;;;;;-142.75;100.00;79528.03;5009977;28;20491;-67
2022/01/24 02:28:11;;;;;;;28.63;16.48;;;;;;;-142.75;100.00;79537.88;5009315;28;20040;-68
2022/01/24 02:30:55;;;;;;;40.43;21.13;;;;;;;-142.75;100.00;79530.00;4992153;28;20153;-68
2022/01/24 02:33:21;;;;;;;40.73;21.73;;;;;;;-142.75;100.00;79537.88;5009751;28;20022;-67
2022/01/24 02:35:47;;;;;;;41.30;22.42;;;;;;;-142.75;100.00;79533.94;4992257;28;20116;-68
2022/01/24 02:48:55;;;;;;;38.17;21.23;;;;;;;-142.75;100.00;79537.88;5025082;28;20034;-68
2022/01/24 02:53:46;;;;;;;41.27;21.77;;;;;;;-142.75;100.00;79547.72;5015490;28;20331;-69
2022/01/24 02:56:12;;;;;;;41.50;21.70;;;;;;;-142.75;100.00;79547.72;4992060;28;20765;-69
2022/01/24 02:58:37;;;;;;;34.28;19.10;;;;;;;-142.75;100.00;79555.63;5027725;28;20080;-68
2022/01/24 03:01:06;;;;;;;30.63;18.73;;;;;;;-142.75;100.00;79557.59;5019437;28;20459;-68
2022/01/24 03:03:33;;;;;;;33.93;18.83;;;;;;;-142.75;100.00;79555.63;5003111;28;20029;-68
2022/01/24 03:05:58;;;;;;;36.57;21.07;;;;;;;-142.75;100.00;79555.63;5028115;28;20040;-67
2022/01/24 03:08:24;;;;;;;40.90;21.48;;;;;;;-142.75;100.00;79555.63;5027009;28;20033;-67
2022/01/24 03:10:51;;;;;;;35.87;21.80;;;;;;;-142.75;100.00;79555.63;5027632;28;20026;-67
2022/01/24 03:15:55;;;;;;;36.38;20.65;;;;;;;-142.75;100.00;79551.69;5009561;28;20045;-67
2022/01/24 03:18:21;;;;;;;35.30;20.60;;;;;;;-142.75;100.00;79551.69;5011077;28;20535;-67
2022/01/24 03:20:47;;;;;;;40.22;22.20;;;;;;;-142.75;100.00;79559.56;5028843;28;20104;-67
2022/01/24 03:23:14;;;;;;;41.22;23.65;;;;;;;-142.75;100.00;79567.44;5010983;28;20479;-67
2022/01/24 03:25:39;;;;;;;39.93;21.63;;;;;;;-142.75;100.00;79567.44;5028872;28;20029;-67
2022/01/24 03:28:05;;;;;;;41.80;23.58;;;;;;;-142.75;100.00;79571.38;5023149;28;20172;-69
2022/01/24 03:30:34;;;;;;;42.55;23.88;;;;;;;-142.75;100.00;79573.34;5028804;28;20061;-69
2022/01/24 03:33:00;;;;;;;42.13;23.30;;;;;;;-142.75;100.00;79579.25;5028687;28;20025;-70
2022/01/24 03:35:26;;;;;;;42.45;24.05;;;;;;;-142.75;100.00;79579.25;5029982;28;20402;-69
2022/01/24 03:37:52;;;;;;;44.78;24.63;;;;;;;-142.75;100.00;79571.38;5032256;28;20690;-69
2022/01/24 03:40:17;;;;;;;46.92;24.55;;;;;;;-142.75;100.00;79573.34;5032688;28;20032;-70
2022/01/24 03:42:43;;;;;;;48.17;24.33;;;;;;;-142.75;100.00;79571.38;5032119;28;20029;-69
2022/01/24 03:45:10;;;;;;;47.17;24.47;;;;;;;-142.75;100.00;79579.25;5032218;28;20280;-69
2022/01/24 03:50:07;;;;;;;47.47;25.20;;;;;;;-142.75;100.00;79585.16;5032058;28;20734;-69
2022/01/24 03:52:32;;;;;;;50.00;26.03;;;;;;;-142.75;100.00;79583.19;5031890;28;20047;-69
2022/01/24 03:55:00;;;;;;;51.38;25.35;;;;;;;-142.75;100.00;79583.19;5032135;28;20144;-69
2022/01/24 03:57:27;;;;;;;49.33;25.07;;;;;;;-142.75;100.00;79575.31;5032066;28;20029;-69
2022/01/24 03:59:52;;;;;;;47.40;25.80;;;;;;;-142.75;100.00;79579.25;5013917;28;20021;-69
2022/01/24 04:02:21;;;;;;;43.50;24.60;;;;;;;-142.75;100.00;79591.06;5031743;28;20525;-67
2022/01/24 04:04:47;;;;;;;48.23;24.77;;;;;;;-142.75;100.00;79577.28;5013839;28;20034;-68
2022/01/24 04:07:12;;;;;;;49.80;26.05;;;;;;;-142.75;100.00;79579.25;5012170;28;20037;-69
2022/01/24 04:09:40;;;;;;;43.05;24.48;;;;;;;-142.75;100.00;79579.25;4994641;28;20026;-70
2022/01/24 04:12:07;;;;;;;46.60;25.83;;;;;;;-142.75;100.00;79571.38;5011991;28;20112;-69
2022/01/24 04:14:43;;;;;;;50.13;26.77;;;;;;;-142.75;100.00;79591.06;5011829;28;20514;-69
2022/01/24 04:22:12;;;;;;;55.93;28.77;;;;;;;-142.75;100.00;79608.81;5011825;28;20029;-69
2022/01/24 04:24:38;;;;;;;55.83;29.87;;;;;;;-142.75;100.00;79614.72;5011935;28;20396;-70
2022/01/24 04:27:04;;;;;;;54.60;28.30;;;;;;;-142.75;100.00;79610.78;5011929;28;20032;-69
2022/01/24 04:29:29;;;;;;;;;;;;;;;-142.75;100.00;79600.91;5011782;28;20022;-69
2022/01/24 04:31:54;;;;;;;52.47;28.57;;;;;;;-142.75;100.00;79604.88;5011680;28;19935;-69
2022/01/24 04:34:20;;;;;;;53.42;29.40;;;;;;;-142.75;100.00;79596.97;5011529;28;20022;-69
2022/01/24 04:36:45;;;;;;;56.73;30.33;;;;;;;-142.75;100.00;79604.88;5011670;28;20025;-69
2022/01/24 04:39:10;;;;;;;52.05;28.25;;;;;;;-142.75;100.00;79606.84;5011410;28;20034;-69
2022/01/24 04:41:40;;;;;;;55.70;28.92;;;;;;;-142.75;100.00;79602.88;5011642;28;20402;-69
2022/01/24 04:52:33;;;;;;;59.57;31.03;;;;;;;-142.75;100.00;79602.88;5011398;28;20044;-69
2022/01/24 04:54:59;;;;;;;59.83;30.97;;;;;;;-142.75;100.00;79608.81;5058782;22;20044;-66
2022/01/24 04:57:26;;;;;;;58.17;31.77;;;;;;;-142.75;100.00;79602.88;5045743;28;20033;-67
2022/01/24 04:59:54;;;;;;;56.47;30.37;;;;;;;-142.75;100.00;79618.66;5023632;28;20022;-67
2022/01/24 05:02:22;;;;;;;57.53;31.33;;;;;;;-142.75;100.00;79630.47;5041200;28;20030;-67
2022/01/24 05:04:48;;;;;;;64.27;33.43;;;;;;;-142.75;100.00;79632.44;5027851;28;20032;-66
2022/01/24 05:07:14;;;;;;;61.90;33.00;;;;;;;-142.75;100.00;79638.34;5020705;28;20021;-65
2022/01/24 05:09:44;;;;;;;63.85;32.40;;;;;;;-142.75;100.00;79638.34;5037826;28;20030;-67
2022/01/24 05:12:24;;;;;;;62.40;32.63;;;;;;;-142.75;100.00;79638.34;5042710;28;20017;-66
2022/01/24 05:25:45;;;;;;;65.53;33.53;;;;;;;-142.75;100.00;79644.25;5041088;28;20456;-67
2022/01/24 05:28:10;;;;;;;65.27;33.80;;;;;;;-142.75;100.00;79638.34;5038477;28;20104;-66
2022/01/24 05:30:35;;;;;;;64.18;33.60;;;;;;;-142.75;100.00;79636.38;5016992;28;20260;-67
2022/01/24 05:33:01;;;;;;;60.73;33.20;;;;;;;-142.75;100.00;79640.31;5041647;28;20037;-66
2022/01/24 05:35:26;;;;;;;61.58;34.08;;;;;;;-142.75;100.00;79658.06;5043049;28;20281;-68
2022/01/24 05:37:51;;;;;;;62.33;34.63;;;;;;;-142.75;100.00;79650.16;5040209;28;20029;-65
2022/01/24 05:40:17;;;;;;;59.33;31.57;;;;;;;-142.75;100.00;79646.22;5044936;28;20282;-66
2022/01/24 05:42:42;;;;;;;65.50;33.60;;;;;;;-142.75;100.00;79642.28;5029470;28;20087;-66
2022/01/24 05:45:08;;;;;;;65.97;33.87;;;;;;;-142.75;100.00;79642.28;5023803;28;20099;-66
2022/01/24 05:47:33;;;;;;;67.82;34.28;;;;;;;-142.75;100.00;79654.13;5043685;28;20260;-65
2022/01/24 05:49:59;;;;;;;60.53;33.47;;;;;;;-142.75;100.00;79646.22;5039413;28;20033;-65
2022/01/24 05:52:25;;;;;;;67.47;35.10;;;;;;;-142.75;100.00;79648.19;5040011;28;20064;-67
2022/01/24 05:54:50;;;;;;;68.72;34.80;;;;;;;-142.75;100.00;79650.16;5021939;28;20113;-66
2022/01/24 05:57:15;;;;;;;68.22;35.40;;;;;;;-142.75;100.00;79654.13;5035757;28;20021;-66
2022/01/24 05:59:41;;;;;;;65.38;34.10;;;;;;;-142.75;100.00;79665.94;5022845;28;20032;-66
2022/01/24 06:02:07;;;;;;;66.50;36.08;;;;;;;-142.75;100.00;79660.03;5035445;28;20407;-66
2022/01/24 06:04:32;;;;;;;64.65;34.50;;;;;;;-142.75;100.00;79656.09;5042155;28;20402;-66
2022/01/24 06:06:57;;;;;;;62.33;33.88;;;;;;;-142.75;100.00;79650.16;5030167;28;20025;-65
2022/01/24 06:09:23;;;;;;;64.10;33.17;;;;;;;-142.75;100.00;79642.28;5017241;28;20438;-66
2022/01/24 06:11:48;;;;;;;62.60;34.23;;;;;;;-142.75;100.00;79650.16;5030479;28;20385;-66
2022/01/24 06:14:14;;;;;;;65.97;35.88;;;;;;;-142.75;100.00;79646.22;5038407;28;20028;-66
2022/01/24 06:16:40;;;;;;;62.63;32.90;;;;;;;-142.75;100.00;79638.34;5036951;28;20045;-66
2022/01/24 06:19:06;;;;;;;63.75;34.28;;;;;;;-142.75;100.00;79630.47;5050482;28;20259;-66
2022/01/24 06:21:31;;;;;;;65.18;33.05;;;;;;;-142.75;100.00;79630.47;5039089;28;20029;-66
2022/01/24 06:23:56;;;;;;;60.25;31.73;;;;;;;-142.75;100.00;79614.72;5037405;28;20032;-66
2022/01/24 06:26:21;;;;;;;54.27;27.20;;;;;;;-142.75;100.00;79624.56;5038228;28;20067;-66
2022/01/24 06:28:47;;;;;;;39.88;21.10;;;;;;;-142.75;100.00;79630.47;5032519;28;20275;-66
2022/01/24 06:31:12;;;;;;;57.50;32.25;;;;;;;-142.75;100.00;79630.47;5047882;28;20474;-67
2022/01/24 06:33:38;;;;;;;60.55;31.98;;;;;;;-142.75;100.00;79638.34;5037709;28;20155;-66
2022/01/24 06:36:04;;;;;;;63.92;33.40;;;;;;;-142.75;100.00;79644.25;5050037;28;20043;-67
2022/01/24 06:38:29;;;;;;;61.17;31.23;;;;;;;-142.75;100.00;79640.31;5050256;28;20051;-66
2022/01/24 06:40:55;;;;;;;61.03;32.97;;;;;;;-142.75;100.00;79636.38;5025751;28;20032;-66
2022/01/24 06:43:20;;;;;;;67.15;34.42;;;;;;;-142.75;100.00;79642.28;5050459;28;20036;-66
2022/01/24 06:45:46;;;;;;;58.40;31.77;;;;;;;-142.75;100.00;79642.28;5041254;28;20049;-65
2022/01/24 06:48:11;;;;;;;58.63;31.10;;;;;;;-142.75;100.00;79652.13;5047271;28;20025;-68
2022/01/24 06:50:36;;;;;;;53.92;30.42;;;;;;;-142.75;100.00;79654.13;5033057;28;20040;-67
2022/01/24 06:53:02;;;;;;;58.50;31.33;;;;;;;-142.75;100.00;79665.94;5030331;28;20030;-68
2022/01/24 06:55:27;;;;;;;54.28;31.70;;;;;;;-142.75;100.00;79662.00;5042597;28;20028;-67
2022/01/24 06:57:53;;;;;;;48.70;27.10;;;;;;;-142.75;100.00;79683.66;5050187;28;20037;-64
2022/01/24 07:00:25;;;;;;;48.58;27.10;;;;;;;-142.75;100.00;79681.69;5048863;28;20021;-67
2022/01/24 07:02:50;;;;;;;42.53;24.10;;;;;;;-142.75;100.00;79693.50;5030492;28;20053;-67
2022/01/24 07:05:16;;;;;;;41.72;23.38;;;;;;;-142.75;100.00;79685.63;5045442;28;20522;-66
2022/01/24 07:07:41;;;;;;;43.87;23.60;;;;;;;-142.75;100.00;79697.44;5016889;28;20033;-67
2022/01/24 07:10:07;;;;;;;34.97;19.77;;;;;;;-142.75;100.00;79707.31;5018498;28;20278;-66
2022/01/24 07:12:32;;;;;;;35.67;19.55;;;;;;;-142.75;100.00;79697.44;5040088;28;20029;-67
2022/01/24 07:15:03;;;;;;;33.43;18.63;;;;;;;-142.75;100.00;79683.66;5049428;28;20112;-66
2022/01/24 07:17:44;;;;;;;42.70;25.50;;;;;;;-142.75;100.00;79685.63;5026180;28;20059;-66
2022/01/24 07:20:09;;;;;;;36.27;22.00;;;;;;;-142.75;100.00;79679.72;5036075;28;20057;-68
2022/01/24 07:22:35;;;;;;;36.83;19.98;;;;;;;-142.75;100.00;79677.75;5037360;28;20088;-67
2022/01/24 07:25:00;;;;;;;40.13;23.40;;;;;;;-142.75;100.00;79691.53;5033970;28;20080;-67
2022/01/24 07:27:25;;;;;;;45.73;24.67;;;;;;;-142.75;100.00;79693.50;5033947;28;20757;-67
2022/01/24 07:29:50;;;;;;;38.90;22.77;;;;;;;-142.75;100.00;79691.53;5044745;28;20271;-67
2022/01/24 07:32:16;;;;;;;36.40;20.80;;;;;;;-142.75;100.00;79681.69;5040475;28;20029;-67
2022/01/24 07:34:41;;;;;;;40.10;22.80;;;;;;;-142.75;100.00;79671.84;5042804;28;20379;-67
2022/01/24 07:37:06;;;;;;;43.17;24.63;;;;;;;-142.75;100.00;79669.88;5039192;28;20029;-66
2022/01/24 07:39:32;;;;;;;45.67;25.20;;;;;;;-142.75;100.00;79679.72;5030223;28;20362;-67
2022/01/24 07:42:03;;;;;;;42.30;23.17;;;;;;;-142.75;100.00;79660.03;5046985;28;20121;-68
2022/01/24 07:44:29;;;;;;;43.50;25.67;;;;;;;-142.75;100.00;79654.13;5032681;28;20648;-66
2022/01/24 07:46:54;;;;;;;46.80;25.63;;;;;;;-142.75;100.00;79662.00;5046335;28;20032;-67
2022/01/24 07:49:19;;;;;;;47.33;25.50;;;;;;;-142.75;100.00;79658.06;5052244;28;20067;-68
2022/01/24 07:51:45;;;;;;;42.20;24.58;;;;;;;-142.75;100.00;79652.13;5052383;28;20054;-68
2022/01/24 07:54:11;;;;;;;49.53;25.63;;;;;;;-142.75;100.00;79662.00;5048128;28;20022;-68
2022/01/24 07:56:37;;;;;;;47.38;26.13;;;;;;;-142.75;100.00;79663.97;5018839;28;20359;-68
2022/01/24 07:59:03;;;;;;;49.50;25.97;;;;;;;-142.75;100.00;79662.00;5026806;28;20057;-67
2022/01/24 08:01:28;;;;;;;45.72;26.25;;;;;;;-142.75;100.00;79654.13;5041396;28;20566;-68
2022/01/24 08:03:53;;;;;;;48.05;26.30;;;;;;;-142.75;100.00;79642.28;5028602;28;20044;-67
2022/01/24 08:06:19;;;;;;;53.45;26.83;;;;;;;-142.75;100.00;79644.25;5027109;28;20027;-67
2022/01/24 08:08:44;;;;;;;56.87;31.83;;;;;;;-142.75;100.00;79636.38;5030821;28;20035;-66
2022/01/24 08:11:11;;;;;;;43.75;24.23;;;;;;;-142.75;100.00;79634.41;5023205;28;20765;-67
2022/01/24 08:13:37;;;;;;;48.90;27.17;;;;;;;-142.75;100.00;79636.38;5050743;28;20506;-67
2022/01/24 08:16:03;;;;;;;49.53;25.70;;;;;;;-142.75;100.00;79648.19;5034167;28;20023;-66
2022/01/24 08:18:28;;;;;;;44.63;23.58;;;;;;;-142.75;100.00;79662.00;5042065;28;20033;-67
2022/01/24 08:20:53;;;;;;;45.33;25.00;;;;;;;-142.75;100.00;79654.13;5044064;28;20029;-66
2022/01/24 08:23:20;;;;;;;46.90;26.20;;;;;;;-142.75;100.00;79656.09;5041897;28;20219;-66
2022/01/24 08:25:45;;;;;;;51.13;26.97;;;;;;;-142.75;100.00;79667.91;5014169;28;20735;-66
2022/01/24 08:28:11;;;;;;;46.47;26.33;;;;;;;-142.75;100.00;79654.13;5014109;28;20101;-66
2022/01/24 08:30:36;;;;;;;46.05;25.98;;;;;;;-142.75;100.00;79648.19;5037490;28;20086;-66
2022/01/24 08:33:01;;;;;;;46.20;25.90;;;;;;;-142.75;100.00;79642.28;5030192;28;20074;-66
2022/01/24 08:35:27;;;;;;;44.58;25.42;;;;;;;-142.75;100.00;79656.09;5031779;28;20390;-66
2022/01/24 08:37:52;;;;;;;44.78;25.48;;;;;;;-142.75;100.00;79648.19;5030977;28;20104;-66
2022/01/24 08:40:23;;;;;;;48.95;27.85;;;;;;;-142.75;100.00;79654.13;5015141;28;20025;-66
2022/01/24 08:42:57;;;;;;;47.53;27.33;;;;;;;-142.75;100.00;79669.88;5029145;28;20514;-65
2022/01/24 08:48:07;;;;;;;50.73;27.67;;;;;;;-142.75;100.00;79687.59;5035808;28;20513;-66
2022/01/24 08:50:32;;;;;;;46.50;26.60;;;;;;;-142.75;100.00;79691.53;5042215;28;20029;-67
2022/01/24 08:52:59;;;;;;;53.90;28.27;;;;;;;-142.75;100.00;79691.53;5048584;28;20068;-66
2022/01/24 08:55:28;;;;;;;50.20;27.73;;;;;;;-142.75;100.00;79697.44;5042408;28;20037;-66
2022/01/24 08:57:55;;;;;;;48.60;28.17;;;;;;;-142.75;100.00;79693.50;5051188;28;20083;-67
2022/01/24 09:00:21;;;;;;;49.40;27.63;;;;;;;-142.75;100.00;79689.56;5030710;28;20021;-68
2022/01/24 09:02:46;;;;;;;51.92;27.70;;;;;;;-142.75;100.00;79705.34;5032406;28;20036;-67
2022/01/24 09:05:11;;;;;;;51.70;27.43;;;;;;;-142.75;100.00;79689.56;5030934;28;20033;-67
2022/01/24 09:07:37;;;;;;;53.70;28.27;;;;;;;-142.75;100.00;79677.75;5041091;28;20021;-67
2022/01/24 09:10:05;;;;;;;50.55;27.02;;;;;;;-142.75;100.00;79669.88;5028274;28;20021;-67
2022/01/24 09:12:31;;;;;;;47.77;26.37;;;;;;;-142.75;100.00;79662.00;5046239;28;20032;-67
2022/01/24 09:14:56;;;;;;;46.33;27.77;;;;;;;-142.75;100.00;79656.09;5028528;28;20414;-67
2022/01/24 09:17:21;;;;;;;50.92;27.55;;;;;;;-142.75;100.00;79646.22;5037020;28;20475;-68
2022/01/24 09:19:47;;;;;;;53.22;28.73;;;;;;;-142.75;100.00;79665.94;5045157;28;20094;-66
2022/01/24 09:22:12;;;;;;;48.60;27.00;;;;;;;-142.75;100.00;79652.13;5037993;28;20032;-67
2022/01/24 09:24:38;;;;;;;49.90;26.40;;;;;;;-142.75;100.00;79662.00;5015804;28;20276;-67
2022/01/24 09:27:03;;;;;;;52.92;30.00;;;;;;;-142.75;100.00;79681.69;5030825;28;20018;-67
2022/01/24 09:29:29;;;;;;;51.78;28.30;;;;;;;-142.75;100.00;79691.53;5031430;28;20040;-67
2022/01/24 09:31:55;;;;;;;46.72;26.20;;;;;;;-142.75;100.00;79685.63;5039308;28;20112;-69
2022/01/24 09:34:20;;;;;;;46.22;25.35;;;;;;;-142.75;100.00;79685.63;5036549;28;20104;-66
2022/01/24 09:36:47;;;;;;;51.58;28.02;;;;;;;-142.75;100.00;79679.72;5013614;28;20180;-66
2022/01/24 09:39:14;;;;;;;57.73;27.80;;;;;;;-142.75;100.00;79687.59;5032225;28;20387;-65
2022/01/24 09:41:40;;;;;;;50.10;28.37;;;;;;;-142.75;100.00;79703.38;5048472;28;20120;-66
2022/01/24 09:44:05;;;;;;;46.25;28.33;;;;;;;-142.75;100.00;79701.38;5049151;28;20108;-65
2022/01/24 09:46:31;;;;;;;54.45;29.63;;;;;;;-142.75;100.00;79709.28;5043437;28;20040;-65
2022/01/24 09:48:56;;;;;;;57.10;27.98;;;;;;;-142.75;100.00;79709.28;5039744;28;20080;-65
2022/01/24 09:51:21;;;;;;;49.22;27.58;;;;;;;-142.75;100.00;79701.38;5017718;28;20104;-65
2022/01/24 09:53:47;;;;;;;56.17;28.92;;;;;;;-142.75;100.00;79693.50;5030061;28;20032;-65
2022/01/24 09:56:12;;;;;;;53.80;28.48;;;;;;;-142.75;100.00;79685.63;5030422;28;20025;-65
2022/01/24 09:58:38;;;;;;;48.67;27.73;;;;;;;-142.75;100.00;79673.81;5013574;28;20028;-66
2022/01/24 10:01:06;;;;;;;47.28;27.00;;;;;;;-142.75;100.00;79669.88;5036609;28;20075;-66
2022/01/24 10:03:32;;;;;;;50.73;27.23;;;;;;;-142.75;100.00;79665.94;5030223;28;20430;-65
2022/01/24 10:05:58;;;;;;;44.97;25.85;;;;;;;-142.75;100.00;79652.13;5032668;28;20033;-67
2022/01/24 10:08:24;;;;;;;47.13;27.08;;;;;;;-142.75;100.00;79663.97;5038804;28;20032;-66
2022/01/24 10:10:52;;;;;;;46.70;27.07;;;;;;;-142.75;100.00;79656.09;5046030;28;20115;-66
2022/01/24 10:16:36;;;;;;;52.17;27.60;;;;;;;-142.75;100.00;79667.91;5036054;28;20094;-66
2022/01/24 10:19:11;;;;;;;52.53;28.40;;;;;;;-142.75;100.00;79697.44;5038240;28;20541;-65
2022/01/24 10:21:59;;;;;;;52.40;28.63;;;;;;;-142.75;100.00;79671.84;5035359;28;20029;-67
2022/01/24 10:24:35;;;;;;;51.50;27.17;;;;;;;-142.75;100.00;79689.56;5034514;28;20036;-65
2022/01/24 10:27:21;;;;;;;42.88;23.08;;;;;;;-142.75;100.00;79697.44;5034665;28;20494;-66
2022/01/24 10:29:54;;;;;;;49.37;27.80;;;;;;;-142.75;100.00;79707.31;5020196;28;20083;-66
2022/01/24 10:32:49;;;;;;;51.47;28.20;;;;;;;-142.75;100.00;79709.28;5044915;28;20057;-67
2022/01/24 10:35:30;;;;;;;56.13;29.60;;;;;;;-142.75;100.00;79707.31;5043126;28;20038;-65
2022/01/24 10:38:52;;;;;;;51.93;28.30;;;;;;;-142.75;100.00;79697.44;5050211;28;20029;-66
2022/01/24 10:41:28;;;;;;;52.80;28.07;;;;;;;-142.75;100.00;79699.41;5050481;28;20020;-66
2022/01/24 10:43:56;;;;;;;53.63;29.70;;;;;;;-142.75;100.00;79705.34;5050530;28;20025;-66
2022/01/24 10:46:27;;;;;;;52.00;27.53;;;;;;;-142.75;100.00;79701.38;5040677;28;20017;-66
2022/01/24 10:49:09;;;;;;;58.93;29.07;;;;;;;-142.75;100.00;79709.28;5048447;28;20086;-66
2022/01/24 10:51:46;;;;;;;51.47;27.83;;;;;;;-142.75;100.00;79713.22;5041274;28;20021;-65
2022/01/24 10:54:26;;;;;;;48.67;26.63;;;;;;;-142.75;100.00;79697.44;5039173;23;20430;-64
2022/01/24 10:56:53;;;;;;;53.53;28.90;;;;;;;-142.75;100.00;79689.56;5033827;28;20028;-64
2022/01/24 10:59:22;;;;;;;53.43;28.30;;;;;;;-142.75;100.00;79669.88;5033491;28;20025;-66
2022/01/24 11:01:52;;;;;;;45.10;26.23;;;;;;;-142.75;100.00;79663.97;5034296;28;20023;-66
2022/01/24 11:04:19;;;;;;;50.50;27.53;;;;;;;-142.75;100.00;79642.28;5034394;28;20021;-66
2022/01/24 11:06:50;;;;;;;51.53;28.93;;;;;;;-142.75;100.00;79646.22;5034458;28;20029;-66
2022/01/24 11:09:24;;;;;;;49.00;28.50;;;;;;;-142.75;100.00;79648.19;5034164;28;20021;-66
2022/01/24 11:11:54;;;;;;;46.03;26.17;;;;;;;-142.75;100.00;79638.34;5034196;28;20033;-66
2022/01/24 11:14:20;;;;;;;48.70;28.37;;;;;;;-142.75;100.00;79624.56;5034209;28;20034;-67
2022/01/24 11:16:48;;;;;;;53.07;29.17;;;;;;;-142.75;100.00;79626.53;5016794;28;20084;-66
2022/01/24 11:19:20;;;;;;;52.80;28.90;;;;;;;-142.75;100.00;79616.69;5033959;28;20029;-66
2022/01/24 11:21:45;;;;;;;50.97;28.90;;;;;;;-142.75;100.00;79622.59;5016456;28;20025;-65
2022/01/24 11:24:17;;;;;;;49.00;27.38;;;;;;;-142.75;100.00;79622.59;5016629;28;20037;-66
2022/01/24 11:26:44;;;;;;;50.37;26.77;;;;;;;-142.75;100.00;79642.28;5016573;28;20434;-66
2022/01/24 11:29:11;;;;;;;51.20;27.13;;;;;;;-142.75;100.00;79656.09;5033806;28;20506;-66
2022/01/24 11:32:02;;;;;;;52.63;29.37;;;;;;;-142.75;100.00;79665.94;5034007;28;20096;-66
2022/01/24 11:34:36;;;;;;;46.93;27.00;;;;;;;-142.75;100.00;79677.75;5033243;28;20021;-66
2022/01/24 11:37:02;;;;;;;52.13;27.67;;;;;;;-142.75;100.00;79673.81;5034064;28;20044;-66
2022/01/24 11:39:27;;;;;;;;;;;;;;;-142.75;100.00;79663.97;5034180;28;20033;-66
2022/01/24 11:41:53;;;;;;;49.03;27.57;;;;;;;-142.75;100.00;79662.00;5016147;28;19928;-66
2022/01/24 11:44:21;;;;;;;50.23;28.67;;;;;;;-142.75;100.00;79662.00;5033757;28;20402;-66
2022/01/24 11:46:58;;;;;;;49.43;27.87;;;;;;;-142.75;100.00;79669.88;5033753;28;20029;-66
2022/01/24 11:49:24;;;;;;;52.30;29.33;;;;;;;-142.75;100.00;79669.88;5015893;28;20032;-66
2022/01/24 11:51:51;;;;;;;52.25;29.10;;;;;;;-142.75;100.00;79662.00;5015292;28;20037;-65
2022/01/24 11:57:36;;;;;;;51.03;28.02;;;;;;;-142.75;100.00;79622.59;5033589;28;20053;-66
2022/01/24 12:00:01;;;;;;;56.22;29.55;;;;;;;-142.75;100.00;79610.78;5015620;28;20107;-66
2022/01/24 12:02:29;;;;;;;47.67;27.55;;;;;;;-142.75;100.00;79614.72;5033649;28;20025;-66
2022/01/24 12:05:00;;;;;;;52.43;27.83;;;;;;;-142.75;100.00;79626.53;5033820;28;20033;-67
2022/01/24 12:07:30;;;;;;;45.67;26.07;;;;;;;-142.75;100.00;79622.59;5033558;28;20017;-66
2022/01/24 12:10:22;;;;;;;47.33;26.43;;;;;;;-142.75;100.00;79600.91;5033300;28;20044;-66
2022/01/24 12:12:55;;;;;;;48.00;28.03;;;;;;;-142.75;100.00;79604.88;5033473;28;20524;-67
2022/01/24 12:15:39;;;;;;;51.87;28.10;;;;;;;-142.75;100.00;79598.94;5033428;28;20075;-66
2022/01/24 12:18:21;;;;;;;51.33;29.07;;;;;;;-142.75;100.00;79595.00;5015658;28;20614;-65
2022/01/24 12:20:48;;;;;;;50.43;28.83;;;;;;;-142.75;100.00;79600.91;5033401;28;20029;-66
2022/01/24 12:23:21;;;;;;;50.23;28.57;;;;;;;-142.75;100.00;79595.00;5015280;28;20028;-66
2022/01/24 12:25:53;;;;;;;49.17;27.87;;;;;;;-142.75;100.00;79598.94;5032954;28;20026;-66
2022/01/24 12:28:23;;;;;;;49.33;26.97;;;;;;;-142.75;100.00;79604.88;5033433;28;20056;-66
2022/01/24 12:31:03;;;;;;;56.43;28.87;;;;;;;-142.75;100.00;79610.78;5015334;28;20013;-67
2022/01/24 12:33:50;;;;;;;52.37;29.63;;;;;;;-142.75;100.00;79616.69;5032937;28;20040;-66
2022/01/24 12:36:16;;;;;;;;;;;;;;;-142.75;100.00;79606.84;5033585;28;20072;-67
2022/01/24 12:38:47;;;;;;;52.53;27.47;;;;;;;-142.75;100.00;79602.88;5033017;28;19916;-66
2022/01/24 12:41:35;;;;;;;48.73;26.80;;;;;;;-142.75;100.00;79591.06;5033032;28;20033;-67